N311TY KSAN-KSBA
Flight info
| Callsign | N311TY |
|---|---|
| Flight time | 1h 3m |
| Altitude | 8000 |
| Route | CWARD2 CWARD AVOLS V208 VTU KWANG |
| Aircraft | C208/L-SDFGR/C |
Departure
| Time | 2026-05-03 21:31 |
|---|---|
| Airport | San Diego International Airport (KSAN) |
Arrival
| Time | 2026-05-03 22:35 |
|---|---|
| Airport | Santa Barbara Municipal Airport (KSBA) |
| Time | Latitude | Longitude | Altitude | Speed | Heading |
|---|---|---|---|---|---|
| 2026-05-03 21:11 | 32.73351 | -117.17866 | 20 ft | 0 kts | 18° |
| 2026-05-03 21:27 | 32.73383 | -117.17864 | 19 ft | 8 kts | 329° |
| 2026-05-03 21:27 | 32.73387 | -117.17926 | 19 ft | 9 kts | 243° |
| 2026-05-03 21:27 | 32.73366 | -117.17941 | 20 ft | 0 kts | 199° |
| 2026-05-03 21:29 | 32.73327 | -117.17956 | 21 ft | 0 kts | 195° |
| 2026-05-03 21:29 | 32.73285 | -117.17971 | 20 ft | 15 kts | 198° |
| 2026-05-03 21:29 | 32.73220 | -117.17934 | 18 ft | 14 kts | 105° |
| 2026-05-03 21:29 | 32.73181 | -117.17764 | 19 ft | 22 kts | 107° |
| 2026-05-03 21:30 | 32.73137 | -117.17588 | 18 ft | 21 kts | 114° |
| 2026-05-03 21:30 | 32.73032 | -117.17557 | 19 ft | 14 kts | 229° |
| 2026-05-03 21:30 | 32.73030 | -117.17615 | 18 ft | 0 kts | 286° |
| 2026-05-03 21:31 | 32.73083 | -117.17829 | 17 ft | 62 kts | 285° |
| 2026-05-03 21:31 | 32.73241 | -117.18514 | 140 ft | 99 kts | 287° |
| 2026-05-03 21:31 | 32.73427 | -117.19328 | 498 ft | 104 kts | 288° |
| 2026-05-03 21:31 | 32.73738 | -117.20101 | 856 ft | 105 kts | 304° |
| 2026-05-03 21:32 | 32.74142 | -117.20835 | 1126 ft | 107 kts | 299° |
| 2026-05-03 21:32 | 32.74541 | -117.21586 | 1389 ft | 108 kts | 298° |
| 2026-05-03 21:32 | 32.74940 | -117.22344 | 1636 ft | 108 kts | 299° |
| 2026-05-03 21:32 | 32.75341 | -117.23102 | 1896 ft | 109 kts | 298° |
| 2026-05-03 21:33 | 32.75745 | -117.23875 | 2158 ft | 110 kts | 300° |
| 2026-05-03 21:33 | 32.76154 | -117.24646 | 2437 ft | 110 kts | 300° |
| 2026-05-03 21:33 | 32.76563 | -117.25421 | 2707 ft | 112 kts | 299° |
| 2026-05-03 21:33 | 32.76977 | -117.26212 | 2952 ft | 114 kts | 299° |
| 2026-05-03 21:34 | 32.77393 | -117.27014 | 3291 ft | 114 kts | 299° |
| 2026-05-03 21:34 | 32.77814 | -117.27817 | 3605 ft | 116 kts | 297° |
| 2026-05-03 21:34 | 32.78246 | -117.28642 | 3908 ft | 119 kts | 298° |
| 2026-05-03 21:34 | 32.78692 | -117.29484 | 4227 ft | 122 kts | 297° |
| 2026-05-03 21:35 | 32.79145 | -117.30345 | 4536 ft | 124 kts | 297° |
| 2026-05-03 21:35 | 32.79603 | -117.31223 | 4846 ft | 126 kts | 297° |
| 2026-05-03 21:35 | 32.80116 | -117.32087 | 5114 ft | 130 kts | 303° |
| 2026-05-03 21:35 | 32.80670 | -117.32935 | 5407 ft | 130 kts | 301° |
| 2026-05-03 21:36 | 32.81224 | -117.33799 | 5665 ft | 133 kts | 301° |
| 2026-05-03 21:36 | 32.81792 | -117.34681 | 5926 ft | 135 kts | 300° |
| 2026-05-03 21:36 | 32.82352 | -117.35549 | 6187 ft | 136 kts | 299° |
| 2026-05-03 21:36 | 32.82946 | -117.36471 | 6440 ft | 138 kts | 298° |
| 2026-05-03 21:37 | 32.83529 | -117.37374 | 6690 ft | 139 kts | 299° |
| 2026-05-03 21:37 | 32.84122 | -117.38293 | 6948 ft | 138 kts | 298° |
| 2026-05-03 21:37 | 32.84708 | -117.39201 | 7196 ft | 138 kts | 298° |
| 2026-05-03 21:37 | 32.85292 | -117.40106 | 7454 ft | 138 kts | 298° |
| 2026-05-03 21:38 | 32.85875 | -117.41011 | 7708 ft | 138 kts | 298° |
| 2026-05-03 21:38 | 32.86457 | -117.41916 | 7947 ft | 138 kts | 298° |
| 2026-05-03 21:38 | 32.87073 | -117.42877 | 7993 ft | 154 kts | 299° |
| 2026-05-03 21:38 | 32.87753 | -117.43926 | 7984 ft | 165 kts | 300° |
| 2026-05-03 21:39 | 32.88469 | -117.45034 | 7989 ft | 172 kts | 300° |
| 2026-05-03 21:39 | 32.89196 | -117.46160 | 7983 ft | 176 kts | 301° |
| 2026-05-03 21:39 | 32.89946 | -117.47324 | 7981 ft | 179 kts | 301° |
| 2026-05-03 21:39 | 32.90704 | -117.48501 | 7982 ft | 180 kts | 301° |
| 2026-05-03 21:40 | 32.91469 | -117.49690 | 7982 ft | 181 kts | 301° |
| 2026-05-03 21:40 | 32.92234 | -117.50880 | 7983 ft | 181 kts | 301° |
| 2026-05-03 21:40 | 32.93002 | -117.52075 | 7983 ft | 182 kts | 301° |
| 2026-05-03 21:40 | 32.93770 | -117.53271 | 7981 ft | 182 kts | 301° |
| 2026-05-03 21:41 | 32.94537 | -117.54467 | 7982 ft | 181 kts | 301° |
| 2026-05-03 21:41 | 32.95303 | -117.55660 | 7981 ft | 181 kts | 301° |
| 2026-05-03 21:41 | 32.96070 | -117.56853 | 7976 ft | 181 kts | 301° |
| 2026-05-03 21:41 | 32.96833 | -117.58043 | 7976 ft | 181 kts | 301° |
| 2026-05-03 21:42 | 32.97598 | -117.59238 | 7977 ft | 181 kts | 301° |
| 2026-05-03 21:42 | 32.98364 | -117.60433 | 7977 ft | 182 kts | 301° |
| 2026-05-03 21:42 | 32.99130 | -117.61628 | 7976 ft | 181 kts | 301° |
| 2026-05-03 21:42 | 32.99895 | -117.62822 | 7976 ft | 181 kts | 301° |
| 2026-05-03 21:43 | 33.00658 | -117.64013 | 7974 ft | 181 kts | 301° |
| 2026-05-03 21:43 | 33.01422 | -117.65206 | 7977 ft | 181 kts | 301° |
| 2026-05-03 21:43 | 33.01926 | -117.65995 | 7978 ft | 181 kts | 301° |
| 2026-05-03 21:43 | 33.02947 | -117.67590 | 7974 ft | 181 kts | 301° |
| 2026-05-03 21:44 | 33.03452 | -117.68380 | 7976 ft | 181 kts | 301° |
| 2026-05-03 21:44 | 33.04214 | -117.69571 | 7977 ft | 181 kts | 301° |
| 2026-05-03 21:44 | 33.04975 | -117.70762 | 7977 ft | 180 kts | 301° |
| 2026-05-03 21:44 | 33.05735 | -117.71951 | 7973 ft | 180 kts | 301° |
| 2026-05-03 21:45 | 33.06528 | -117.73112 | 7973 ft | 183 kts | 310° |
| 2026-05-03 21:45 | 33.07516 | -117.74087 | 7972 ft | 184 kts | 314° |
| 2026-05-03 21:45 | 33.08488 | -117.75080 | 7971 ft | 184 kts | 313° |
| 2026-05-03 21:45 | 33.09461 | -117.76075 | 7972 ft | 184 kts | 314° |
| 2026-05-03 21:46 | 33.10439 | -117.77069 | 7973 ft | 184 kts | 314° |
| 2026-05-03 21:46 | 33.11416 | -117.78063 | 7970 ft | 185 kts | 314° |
| 2026-05-03 21:46 | 33.12394 | -117.79056 | 7970 ft | 185 kts | 314° |
| 2026-05-03 21:46 | 33.13370 | -117.80050 | 7971 ft | 184 kts | 314° |
| 2026-05-03 21:47 | 33.14346 | -117.81043 | 7971 ft | 184 kts | 314° |
| 2026-05-03 21:47 | 33.15321 | -117.82036 | 7971 ft | 184 kts | 314° |
| 2026-05-03 21:47 | 33.16296 | -117.83029 | 7972 ft | 184 kts | 314° |
| 2026-05-03 21:47 | 33.17269 | -117.84020 | 7972 ft | 184 kts | 314° |
| 2026-05-03 21:48 | 33.18243 | -117.85013 | 7971 ft | 184 kts | 314° |
| 2026-05-03 21:48 | 33.19252 | -117.85962 | 7971 ft | 187 kts | 324° |
| 2026-05-03 21:48 | 33.20497 | -117.86467 | 7973 ft | 192 kts | 345° |
| 2026-05-03 21:48 | 33.21806 | -117.86781 | 7966 ft | 192 kts | 344° |
| 2026-05-03 21:49 | 33.23113 | -117.87110 | 7971 ft | 192 kts | 345° |
| 2026-05-03 21:49 | 33.24423 | -117.87437 | 7972 ft | 192 kts | 345° |
| 2026-05-03 21:49 | 33.25734 | -117.87762 | 7974 ft | 192 kts | 345° |
| 2026-05-03 21:49 | 33.27042 | -117.88100 | 7972 ft | 191 kts | 339° |
| 2026-05-03 21:50 | 33.28065 | -117.88956 | 7954 ft | 179 kts | 298° |
| 2026-05-03 21:50 | 33.28358 | -117.90318 | 7960 ft | 167 kts | 263° |
| 2026-05-03 21:50 | 33.28422 | -117.91706 | 7970 ft | 170 kts | 275° |
| 2026-05-03 21:50 | 33.28686 | -117.93087 | 7975 ft | 171 kts | 278° |
| 2026-05-03 21:51 | 33.28978 | -117.94469 | 7975 ft | 172 kts | 278° |
| 2026-05-03 21:51 | 33.29270 | -117.95854 | 7974 ft | 172 kts | 278° |
| 2026-05-03 21:51 | 33.29562 | -117.97239 | 7974 ft | 172 kts | 278° |
| 2026-05-03 21:51 | 33.29853 | -117.98626 | 7975 ft | 172 kts | 278° |
| 2026-05-03 21:52 | 33.30144 | -118.00014 | 7974 ft | 172 kts | 278° |
| 2026-05-03 21:52 | 33.30437 | -118.01407 | 7975 ft | 172 kts | 278° |
| 2026-05-03 21:52 | 33.30728 | -118.02797 | 7977 ft | 172 kts | 278° |
| 2026-05-03 21:52 | 33.31018 | -118.04182 | 7979 ft | 172 kts | 278° |
| 2026-05-03 21:53 | 33.31309 | -118.05570 | 7980 ft | 172 kts | 278° |
| 2026-05-03 21:53 | 33.31598 | -118.06955 | 7983 ft | 172 kts | 278° |
| 2026-05-03 21:53 | 33.31887 | -118.08337 | 7985 ft | 171 kts | 278° |
| 2026-05-03 21:53 | 33.32177 | -118.09722 | 7985 ft | 172 kts | 278° |
| 2026-05-03 21:54 | 33.32465 | -118.11107 | 7987 ft | 172 kts | 278° |
| 2026-05-03 21:54 | 33.32755 | -118.12492 | 7989 ft | 172 kts | 279° |
| 2026-05-03 21:54 | 33.33044 | -118.13880 | 7992 ft | 172 kts | 279° |
| 2026-05-03 21:54 | 33.33333 | -118.15264 | 7989 ft | 172 kts | 279° |
| 2026-05-03 21:55 | 33.33622 | -118.16651 | 7992 ft | 172 kts | 279° |
| 2026-05-03 21:55 | 33.33910 | -118.18037 | 7994 ft | 172 kts | 279° |
| 2026-05-03 21:55 | 33.34199 | -118.19422 | 7997 ft | 172 kts | 279° |
| 2026-05-03 21:55 | 33.34487 | -118.20808 | 7997 ft | 172 kts | 279° |
| 2026-05-03 21:56 | 33.34775 | -118.22196 | 7998 ft | 172 kts | 279° |
| 2026-05-03 21:56 | 33.35064 | -118.23586 | 7997 ft | 172 kts | 279° |
| 2026-05-03 21:56 | 33.35300 | -118.24976 | 8004 ft | 169 kts | 274° |
| 2026-05-03 21:56 | 33.35473 | -118.26368 | 8000 ft | 169 kts | 274° |
| 2026-05-03 21:57 | 33.35655 | -118.27758 | 8000 ft | 169 kts | 274° |
| 2026-05-03 21:57 | 33.35841 | -118.29167 | 8000 ft | 169 kts | 274° |
| 2026-05-03 21:57 | 33.36023 | -118.30555 | 8006 ft | 169 kts | 274° |
| 2026-05-03 21:57 | 33.36205 | -118.31947 | 8004 ft | 169 kts | 274° |
| 2026-05-03 21:58 | 33.36386 | -118.33332 | 8005 ft | 169 kts | 274° |
| 2026-05-03 21:58 | 33.36566 | -118.34719 | 8000 ft | 168 kts | 274° |
| 2026-05-03 21:58 | 33.36748 | -118.36105 | 8006 ft | 170 kts | 275° |
| 2026-05-03 21:58 | 33.36933 | -118.37508 | 7998 ft | 171 kts | 274° |
| 2026-05-03 21:59 | 33.37114 | -118.38913 | 8001 ft | 171 kts | 274° |
| 2026-05-03 21:59 | 33.37296 | -118.40315 | 7995 ft | 170 kts | 274° |
| 2026-05-03 21:59 | 33.37546 | -118.41695 | 7994 ft | 171 kts | 286° |
| 2026-05-03 21:59 | 33.38167 | -118.42926 | 8001 ft | 176 kts | 304° |
| 2026-05-03 22:00 | 33.38968 | -118.44038 | 7998 ft | 176 kts | 304° |
| 2026-05-03 22:00 | 33.39752 | -118.45166 | 8000 ft | 177 kts | 305° |
| 2026-05-03 22:00 | 33.40545 | -118.46296 | 8000 ft | 178 kts | 305° |
| 2026-05-03 22:00 | 33.41342 | -118.47427 | 7999 ft | 178 kts | 305° |
| 2026-05-03 22:01 | 33.42139 | -118.48561 | 8002 ft | 178 kts | 305° |
| 2026-05-03 22:01 | 33.42939 | -118.49702 | 7996 ft | 179 kts | 305° |
| 2026-05-03 22:01 | 33.43741 | -118.50842 | 7998 ft | 179 kts | 305° |
| 2026-05-03 22:01 | 33.44544 | -118.51984 | 7995 ft | 180 kts | 305° |
| 2026-05-03 22:02 | 33.45347 | -118.53128 | 7997 ft | 179 kts | 305° |
| 2026-05-03 22:02 | 33.46148 | -118.54269 | 7994 ft | 179 kts | 305° |
| 2026-05-03 22:02 | 33.46942 | -118.55404 | 7988 ft | 177 kts | 305° |
| 2026-05-03 22:02 | 33.47734 | -118.56531 | 7987 ft | 176 kts | 305° |
| 2026-05-03 22:03 | 33.48521 | -118.57656 | 7983 ft | 176 kts | 305° |
| 2026-05-03 22:03 | 33.49309 | -118.58779 | 7984 ft | 176 kts | 305° |
| 2026-05-03 22:03 | 33.50093 | -118.59900 | 7985 ft | 176 kts | 305° |
| 2026-05-03 22:03 | 33.50879 | -118.61021 | 7976 ft | 175 kts | 305° |
| 2026-05-03 22:04 | 33.51663 | -118.62140 | 7976 ft | 175 kts | 305° |
| 2026-05-03 22:04 | 33.52443 | -118.63256 | 7975 ft | 175 kts | 305° |
| 2026-05-03 22:04 | 33.53225 | -118.64373 | 7974 ft | 175 kts | 305° |
| 2026-05-03 22:04 | 33.54007 | -118.65490 | 7974 ft | 175 kts | 305° |
| 2026-05-03 22:05 | 33.54788 | -118.66607 | 7974 ft | 175 kts | 305° |
| 2026-05-03 22:05 | 33.55567 | -118.67721 | 7973 ft | 174 kts | 305° |
| 2026-05-03 22:05 | 33.56346 | -118.68836 | 7973 ft | 175 kts | 305° |
| 2026-05-03 22:05 | 33.57127 | -118.69954 | 7969 ft | 175 kts | 305° |
| 2026-05-03 22:06 | 33.57909 | -118.71074 | 7968 ft | 175 kts | 305° |
| 2026-05-03 22:06 | 33.58693 | -118.72196 | 7966 ft | 176 kts | 305° |
| 2026-05-03 22:06 | 33.59478 | -118.73320 | 7965 ft | 176 kts | 305° |
| 2026-05-03 22:06 | 33.60261 | -118.74442 | 7965 ft | 175 kts | 305° |
| 2026-05-03 22:07 | 33.61044 | -118.75565 | 7958 ft | 175 kts | 305° |
| 2026-05-03 22:07 | 33.61824 | -118.76684 | 7961 ft | 175 kts | 305° |
| 2026-05-03 22:07 | 33.62604 | -118.77803 | 7957 ft | 175 kts | 305° |
| 2026-05-03 22:07 | 33.63371 | -118.78904 | 7957 ft | 175 kts | 305° |
| 2026-05-03 22:08 | 33.64164 | -118.80040 | 7957 ft | 175 kts | 306° |
| 2026-05-03 22:08 | 33.64939 | -118.81153 | 7954 ft | 175 kts | 305° |
| 2026-05-03 22:08 | 33.65723 | -118.82280 | 7955 ft | 175 kts | 305° |
| 2026-05-03 22:08 | 33.66505 | -118.83404 | 7956 ft | 175 kts | 306° |
| 2026-05-03 22:09 | 33.67287 | -118.84527 | 7953 ft | 175 kts | 305° |
| 2026-05-03 22:09 | 33.68067 | -118.85648 | 7954 ft | 175 kts | 305° |
| 2026-05-03 22:09 | 33.68848 | -118.86772 | 7951 ft | 175 kts | 306° |
| 2026-05-03 22:10 | 33.70411 | -118.89020 | 7953 ft | 175 kts | 306° |
| 2026-05-03 22:10 | 33.71193 | -118.90146 | 7952 ft | 176 kts | 306° |
| 2026-05-03 22:10 | 33.71976 | -118.91272 | 7953 ft | 176 kts | 306° |
| 2026-05-03 22:10 | 33.72758 | -118.92399 | 7951 ft | 176 kts | 306° |
| 2026-05-03 22:11 | 33.73542 | -118.93528 | 7953 ft | 176 kts | 305° |
| 2026-05-03 22:11 | 33.74326 | -118.94659 | 7953 ft | 176 kts | 306° |
| 2026-05-03 22:11 | 33.75110 | -118.95788 | 7948 ft | 176 kts | 306° |
| 2026-05-03 22:11 | 33.75893 | -118.96919 | 7954 ft | 176 kts | 306° |
| 2026-05-03 22:12 | 33.76679 | -118.98051 | 7951 ft | 176 kts | 306° |
| 2026-05-03 22:12 | 33.77465 | -118.99185 | 7954 ft | 176 kts | 306° |
| 2026-05-03 22:12 | 33.78251 | -119.00317 | 7948 ft | 177 kts | 306° |
| 2026-05-03 22:12 | 33.79211 | -119.01252 | 7952 ft | 182 kts | 329° |
| 2026-05-03 22:13 | 33.80431 | -119.01691 | 7958 ft | 186 kts | 352° |
| 2026-05-03 22:13 | 33.81726 | -119.01810 | 7963 ft | 187 kts | 352° |
| 2026-05-03 22:13 | 33.83021 | -119.01952 | 7964 ft | 187 kts | 352° |
| 2026-05-03 22:13 | 33.84316 | -119.02090 | 7963 ft | 187 kts | 352° |
| 2026-05-03 22:14 | 33.85612 | -119.02224 | 7966 ft | 187 kts | 352° |
| 2026-05-03 22:14 | 33.86908 | -119.02360 | 7971 ft | 187 kts | 352° |
| 2026-05-03 22:14 | 33.88207 | -119.02495 | 7967 ft | 187 kts | 353° |
| 2026-05-03 22:14 | 33.89506 | -119.02632 | 7968 ft | 187 kts | 353° |
| 2026-05-03 22:15 | 33.90790 | -119.02766 | 7970 ft | 187 kts | 353° |
| 2026-05-03 22:15 | 33.92086 | -119.02901 | 8012 ft | 185 kts | 353° |
| 2026-05-03 22:15 | 33.93368 | -119.03037 | 8017 ft | 186 kts | 353° |
| 2026-05-03 22:15 | 33.94658 | -119.03172 | 8025 ft | 187 kts | 353° |
| 2026-05-03 22:16 | 33.95960 | -119.03307 | 8007 ft | 188 kts | 353° |
| 2026-05-03 22:16 | 33.97264 | -119.03444 | 8012 ft | 188 kts | 353° |
| 2026-05-03 22:16 | 33.98568 | -119.03581 | 8012 ft | 188 kts | 353° |
| 2026-05-03 22:16 | 33.99870 | -119.03717 | 8008 ft | 187 kts | 353° |
| 2026-05-03 22:17 | 34.01167 | -119.03854 | 8006 ft | 187 kts | 353° |
| 2026-05-03 22:17 | 34.02463 | -119.03989 | 8008 ft | 187 kts | 353° |
| 2026-05-03 22:17 | 34.03759 | -119.04127 | 8012 ft | 187 kts | 353° |
| 2026-05-03 22:17 | 34.05053 | -119.04262 | 8005 ft | 187 kts | 353° |
| 2026-05-03 22:18 | 34.06349 | -119.04398 | 8007 ft | 187 kts | 353° |
| 2026-05-03 22:18 | 34.07642 | -119.04534 | 8004 ft | 187 kts | 353° |
| 2026-05-03 22:18 | 34.08938 | -119.04670 | 8009 ft | 187 kts | 353° |
| 2026-05-03 22:18 | 34.10229 | -119.04852 | 7996 ft | 186 kts | 344° |
| 2026-05-03 22:19 | 34.11367 | -119.05541 | 7999 ft | 183 kts | 319° |
| 2026-05-03 22:19 | 34.12188 | -119.06676 | 8001 ft | 178 kts | 295° |
| 2026-05-03 22:19 | 34.12714 | -119.08017 | 8000 ft | 177 kts | 291° |
| 2026-05-03 22:19 | 34.13246 | -119.09361 | 8003 ft | 177 kts | 291° |
| 2026-05-03 22:20 | 34.13776 | -119.10705 | 8002 ft | 177 kts | 291° |
| 2026-05-03 22:20 | 34.14304 | -119.12054 | 8004 ft | 178 kts | 291° |
| 2026-05-03 22:20 | 34.14831 | -119.13402 | 8012 ft | 178 kts | 291° |
| 2026-05-03 22:20 | 34.15360 | -119.14754 | 8003 ft | 178 kts | 291° |
| 2026-05-03 22:21 | 34.15890 | -119.16106 | 8003 ft | 178 kts | 291° |
| 2026-05-03 22:21 | 34.16421 | -119.17461 | 8001 ft | 178 kts | 291° |
| 2026-05-03 22:21 | 34.16950 | -119.18814 | 7991 ft | 178 kts | 291° |
| 2026-05-03 22:21 | 34.17480 | -119.20170 | 7999 ft | 179 kts | 291° |
| 2026-05-03 22:22 | 34.18010 | -119.21525 | 7992 ft | 179 kts | 291° |
| 2026-05-03 22:22 | 34.18540 | -119.22882 | 7993 ft | 179 kts | 291° |
| 2026-05-03 22:22 | 34.19071 | -119.24240 | 7990 ft | 179 kts | 291° |
| 2026-05-03 22:22 | 34.19603 | -119.25599 | 7991 ft | 179 kts | 291° |
| 2026-05-03 22:23 | 34.19956 | -119.26499 | 7990 ft | 179 kts | 292° |
| 2026-05-03 22:23 | 34.20487 | -119.27858 | 7990 ft | 179 kts | 291° |
| 2026-05-03 22:23 | 34.21018 | -119.29220 | 7991 ft | 179 kts | 292° |
| 2026-05-03 22:23 | 34.21721 | -119.31024 | 7997 ft | 179 kts | 291° |
| 2026-05-03 22:24 | 34.22254 | -119.32391 | 7993 ft | 180 kts | 292° |
| 2026-05-03 22:24 | 34.22615 | -119.33316 | 7994 ft | 180 kts | 292° |
| 2026-05-03 22:24 | 34.23323 | -119.35134 | 8002 ft | 181 kts | 292° |
| 2026-05-03 22:24 | 34.23685 | -119.36063 | 7995 ft | 181 kts | 292° |
| 2026-05-03 22:25 | 34.24218 | -119.37440 | 7998 ft | 181 kts | 292° |
| 2026-05-03 22:25 | 34.24754 | -119.38819 | 7993 ft | 181 kts | 292° |
| 2026-05-03 22:25 | 34.25289 | -119.40194 | 7996 ft | 181 kts | 292° |
| 2026-05-03 22:25 | 34.25822 | -119.41566 | 7987 ft | 180 kts | 292° |
| 2026-05-03 22:26 | 34.26356 | -119.42938 | 7989 ft | 180 kts | 292° |
| 2026-05-03 22:26 | 34.26888 | -119.44313 | 7987 ft | 180 kts | 292° |
| 2026-05-03 22:26 | 34.27486 | -119.45652 | 7883 ft | 186 kts | 298° |
| 2026-05-03 22:26 | 34.28179 | -119.47036 | 7561 ft | 193 kts | 298° |
| 2026-05-03 22:27 | 34.28845 | -119.48404 | 7261 ft | 185 kts | 297° |
| 2026-05-03 22:27 | 34.29463 | -119.49741 | 6981 ft | 180 kts | 297° |
| 2026-05-03 22:27 | 34.30075 | -119.51051 | 6691 ft | 177 kts | 297° |
| 2026-05-03 22:27 | 34.30672 | -119.52319 | 6423 ft | 175 kts | 297° |
| 2026-05-03 22:28 | 34.31269 | -119.53589 | 6144 ft | 173 kts | 298° |
| 2026-05-03 22:28 | 34.31871 | -119.54870 | 5871 ft | 173 kts | 298° |
| 2026-05-03 22:28 | 34.32456 | -119.56112 | 5604 ft | 172 kts | 299° |
| 2026-05-03 22:28 | 34.33047 | -119.57368 | 5340 ft | 171 kts | 299° |
| 2026-05-03 22:29 | 34.33633 | -119.58620 | 5069 ft | 171 kts | 300° |
| 2026-05-03 22:29 | 34.34222 | -119.59872 | 4803 ft | 172 kts | 300° |
| 2026-05-03 22:29 | 34.34815 | -119.61128 | 4529 ft | 172 kts | 300° |
| 2026-05-03 22:29 | 34.35406 | -119.62389 | 4259 ft | 172 kts | 300° |
| 2026-05-03 22:30 | 34.35993 | -119.63642 | 3989 ft | 171 kts | 300° |
| 2026-05-03 22:30 | 34.36578 | -119.64886 | 3724 ft | 170 kts | 299° |
| 2026-05-03 22:30 | 34.37160 | -119.66126 | 3457 ft | 169 kts | 299° |
| 2026-05-03 22:30 | 34.37737 | -119.67358 | 3194 ft | 167 kts | 300° |
| 2026-05-03 22:31 | 34.38308 | -119.68574 | 2931 ft | 165 kts | 299° |
| 2026-05-03 22:31 | 34.38872 | -119.69782 | 2671 ft | 164 kts | 299° |
| 2026-05-03 22:31 | 34.39430 | -119.70972 | 2413 ft | 162 kts | 299° |
| 2026-05-03 22:31 | 34.39982 | -119.72150 | 2164 ft | 161 kts | 299° |
| 2026-05-03 22:32 | 34.40533 | -119.73330 | 1908 ft | 161 kts | 298° |
| 2026-05-03 22:32 | 34.41090 | -119.74517 | 1650 ft | 162 kts | 299° |
| 2026-05-03 22:32 | 34.41645 | -119.75700 | 1399 ft | 162 kts | 297° |
| 2026-05-03 22:32 | 34.42189 | -119.76860 | 1152 ft | 155 kts | 295° |
| 2026-05-03 22:33 | 34.42592 | -119.78020 | 952 ft | 140 kts | 283° |
| 2026-05-03 22:33 | 34.42784 | -119.79110 | 811 ft | 124 kts | 275° |
| 2026-05-03 22:33 | 34.42864 | -119.80075 | 687 ft | 113 kts | 269° |
| 2026-05-03 22:33 | 34.42868 | -119.80983 | 517 ft | 94 kts | 266° |
| 2026-05-03 22:34 | 34.42848 | -119.81731 | 379 ft | 89 kts | 261° |
| 2026-05-03 22:34 | 34.42823 | -119.82482 | 211 ft | 88 kts | 265° |
| 2026-05-03 22:34 | 34.42802 | -119.83199 | 84 ft | 82 kts | 264° |
| 2026-05-03 22:34 | 34.42789 | -119.83876 | 28 ft | 76 kts | 265° |
| 2026-05-03 22:35 | 34.42771 | -119.84428 | 19 ft | 56 kts | 269° |
| 2026-05-03 22:35 | 34.42735 | -119.84675 | 16 ft | 16 kts | 197° |
| 2026-05-03 22:35 | 34.42668 | -119.84619 | 16 ft | 11 kts | 114° |
| 2026-05-03 22:35 | 34.42658 | -119.84487 | 17 ft | 22 kts | 89° |
| 2026-05-03 22:36 | 34.42662 | -119.84304 | 19 ft | 23 kts | 89° |
| 2026-05-03 22:36 | 34.42665 | -119.84122 | 22 ft | 20 kts | 90° |
| 2026-05-03 22:36 | 34.42669 | -119.83939 | 23 ft | 24 kts | 88° |
| 2026-05-03 22:36 | 34.42709 | -119.83829 | 23 ft | 12 kts | 6° |
| 2026-05-03 22:37 | 34.42838 | -119.83887 | 20 ft | 31 kts | 341° |
| 2026-05-03 22:37 | 34.43036 | -119.83950 | 16 ft | 24 kts | 343° |
| 2026-05-03 22:37 | 34.43104 | -119.83890 | 16 ft | 12 kts | 77° |
| 2026-05-03 22:37 | 34.43135 | -119.83775 | 17 ft | 18 kts | 70° |
| 2026-05-03 22:38 | 34.43191 | -119.83725 | 18 ft | 11 kts | 343° |
| 2026-05-03 22:38 | 34.43201 | -119.83729 | 18 ft | 0 kts | 341° |
| 2026-05-03 22:59 | 34.43203 | -119.83729 | 18 ft | 3 kts | 358° |
| 2026-05-03 22:59 | 34.43213 | -119.83716 | 18 ft | 2 kts | 86° |
| 2026-05-03 23:00 | 34.43209 | -119.83725 | 18 ft | 6 kts | 142° |
| 2026-05-03 23:00 | 34.43164 | -119.83681 | 18 ft | 7 kts | 96° |
| 2026-05-03 23:00 | 34.43194 | -119.83564 | 19 ft | 15 kts | 72° |
| 2026-05-03 23:00 | 34.43168 | -119.83537 | 19 ft | 14 kts | 184° |
| 2026-05-03 23:01 | 34.43067 | -119.83535 | 19 ft | 15 kts | 178° |
| 2026-05-03 23:01 | 34.42936 | -119.83531 | 20 ft | 17 kts | 170° |
| 2026-05-03 23:01 | 34.42865 | -119.83465 | 20 ft | 0 kts | 175° |
| 2026-05-03 23:02 | 34.42793 | -119.83528 | 19 ft | 23 kts | 263° |
| 2026-05-03 23:02 | 34.42783 | -119.83870 | 22 ft | 66 kts | 268° |
| 2026-05-03 23:03 | 34.42775 | -119.84483 | 166 ft | 76 kts | 263° |
| 2026-05-03 23:03 | 34.42776 | -119.85130 | 359 ft | 80 kts | 278° |
| 2026-05-03 23:03 | 34.42803 | -119.85834 | 463 ft | 91 kts | 256° |
| 2026-05-03 23:03 | 34.42390 | -119.86430 | 680 ft | 98 kts | 201° |
| 2026-05-03 23:04 | 34.41705 | -119.86566 | 923 ft | 104 kts | 165° |
| 2026-05-03 23:04 | 34.41175 | -119.86037 | 1295 ft | 101 kts | 121° |
| 2026-05-03 23:04 | 34.40953 | -119.85207 | 1599 ft | 107 kts | 101° |
| 2026-05-03 23:04 | 34.40618 | -119.84437 | 1854 ft | 107 kts | 120° |
| 2026-05-03 23:05 | 34.40468 | -119.83530 | 2097 ft | 109 kts | 92° |
| 2026-05-03 23:05 | 34.40467 | -119.82922 | 2284 ft | 106 kts | 98° |
| 2026-05-03 23:05 | 34.40321 | -119.82040 | 2520 ft | 108 kts | 100° |
| 2026-05-03 23:05 | 34.40099 | -119.81184 | 2745 ft | 107 kts | 109° |
| 2026-05-03 23:06 | 34.39926 | -119.80356 | 3073 ft | 99 kts | 97° |
| 2026-05-03 23:06 | 34.39985 | -119.79465 | 3208 ft | 109 kts | 90° |
| 2026-05-03 23:06 | 34.39494 | -119.79432 | 3317 ft | 112 kts | 225° |
| 2026-05-03 23:06 | 34.38812 | -119.79673 | 3514 ft | 106 kts | 163° |
| 2026-05-03 23:07 | 34.38312 | -119.79092 | 3752 ft | 104 kts | 121° |
| 2026-05-03 23:07 | 34.38141 | -119.78292 | 4024 ft | 103 kts | 96° |
| 2026-05-03 23:07 | 34.38130 | -119.77419 | 4228 ft | 104 kts | 100° |
| 2026-05-03 23:07 | 34.37969 | -119.76568 | 4432 ft | 105 kts | 105° |